Thursday, January 18, 2018, 12:08 AM GMT
Back to Local

CWWZ, Port Weller, Ont.

Location: , , Canada Lat: 43.25
Local Time: 12:08 AM GMT ( 0:08 GMT) Lon: -79.217
Time Zone: GMT Elev: 259 ft

Show me the last for .
Show Coded

Time T Td Feel RH Dir Speed Gust Alt SLP Vis Weather Sky Remarks
2018-01-17 23:00 20 15 5 78 210° 13 21 - 30.27 0 Peak wind: 25 mph (22 kts) from 230° at 35 min
2018-01-17 22:00 21 14 6 74 230° 12 20 - 30.29 0 Peak wind: 20 mph (18 kts) from 220° at 48 min
2018-01-17 21:00 23 13 8 63 210° 12 20 - 30.30 0 Peak wind: 20 mph (18 kts) from 230° at 20 min
2018-01-17 20:00 24 12 10 59 230° 9 18 - 30.32 0 None
2018-01-17 19:00 25 14 16 61 250° 9 - - 30.34 0 None
2018-01-17 18:00 24 13 15 60 240° 9 - - 30.36 0 None
2018-01-17 17:00 23 13 10 63 250° 10 17 - 30.39 0 Peak wind: 23 mph (20 kts) from 260° at 19 min
2018-01-17 16:00 22 15 8 74 250° 12 17 - 30.43 0 Peak wind: 24 mph (21 kts) from 260° at 19 min
2018-01-17 15:00 21 15 11 76 250° 9 - - 30.43 0 None
2018-01-17 14:00 19 14 10 79 240° 7 - - 30.42 0 None
2018-01-17 13:00 18 14 8 82 250° 8 - - 30.42 0 None
2018-01-17 12:00 17 12 6 80 230° 9 - - 30.42 0 None
2018-01-17 11:00 18 13 8 80 240° 7 - - 30.42 0 None
2018-01-17 10:00 18 13 7 80 240° 9 - - 30.41 0 None
2018-01-17 09:00 17 12 1 78 210° 10 18 - 30.41 0 Peak wind: 19 mph (17 kts) from 210° at 47 min
2018-01-17 08:00 17 12 6 77 220° 9 - - 30.42 0 Peak wind: 19 mph (17 kts) from 220° at 05 min
2018-01-17 07:00 17 12 7 78 220° 8 - - 30.42 0 None
2018-01-17 06:00 17 12 8 82 220° 6 - - 30.41 0 None
2018-01-17 05:00 16 10 6 78 200° 7 - - 30.43 0 None
2018-01-17 04:00 19 10 2 68 220° 12 21 - 30.43 0 Peak wind: 20 mph (18 kts) from 220° at 55 min
2018-01-17 03:00 18 11 6 75 240° 9 - - 30.44 0 None
2018-01-17 02:00 19 13 9 75 230° 8 - - 30.43 0 Peak wind: 19 mph (17 kts) from 210° at 41 min
2018-01-17 01:00 21 16 12 80 230° 8 - - 30.42 0 None

Support USWX by starting your Amazon purchase here.